Time;durP1;ratioP1;P1;durP2;ratioP2;P2;SDS_P1;SDS_P2;PMS_P1;PMS_P2;Temp;Humidity;BMP_temperature;BMP_pressure;BME280_temperature;BME280_humidity;BME280_pressure;Samples;Min_cycle;Max_cycle;Signal;HPM_P1;HPM_P2
2023/10/19 00:01:25;;;;;;;;;4.00;4.00;;;;;12.08;67.69;97822.16;5094727;28;8862;-58
2023/10/19 00:03:55;;;;;;;;;4.50;4.50;;;;;12.09;67.82;97816.63;5095143;28;8822;-58
2023/10/19 00:06:24;;;;;;;;;4.00;4.00;;;;;12.13;67.83;97809.06;5094598;28;8849;-57
2023/10/19 00:08:52;;;;;;;;;3.00;3.00;;;;;12.19;68.50;97800.34;5094636;28;8814;-59
2023/10/19 00:11:23;;;;;;;;;3.50;3.00;;;;;12.25;68.22;97803.09;5094883;28;8864;-57
2023/10/19 00:13:50;;;;;;;;;3.00;3.00;;;;;12.33;67.80;97796.84;5094857;28;8830;-58
2023/10/19 00:16:22;;;;;;;;;3.00;3.00;;;;;12.38;67.97;97789.13;5094027;28;9523;-59
2023/10/19 00:18:49;;;;;;;;;1.50;1.50;;;;;12.42;67.96;97793.88;5093787;28;9610;-56
2023/10/19 00:21:20;;;;;;;;;3.00;3.00;;;;;12.47;67.99;97775.44;5094568;28;8889;-56
2023/10/19 00:23:47;;;;;;;;;4.00;3.00;;;;;12.50;68.12;97777.78;5093926;28;8907;-56
2023/10/19 00:26:19;;;;;;;;;1.00;1.00;;;;;12.54;68.15;97776.34;5094102;28;8841;-57
2023/10/19 00:28:46;;;;;;;;;3.50;3.50;;;;;12.59;67.79;97776.63;5094409;28;9662;-58
2023/10/19 00:31:13;;;;;;;;;2.50;1.00;;;;;12.63;67.71;97769.06;5094686;28;8848;-58
2023/10/19 00:33:41;;;;;;;;;0.25;0.25;;;;;12.66;68.00;97774.03;5094818;28;8822;-58
2023/10/19 00:36:09;;;;;;;;;2.75;2.00;;;;;12.69;67.62;97774.47;5094881;28;8826;-59
2023/10/19 00:38:43;;;;;;;;;0.25;0.25;;;;;12.75;68.01;97763.06;5094737;28;8845;-57
2023/10/19 00:41:19;;;;;;;;;3.00;1.00;;;;;12.84;68.25;97769.94;5094435;28;8850;-56
2023/10/19 00:43:47;;;;;;;;;3.50;3.25;;;;;12.91;68.19;97762.81;5095042;28;8864;-59
2023/10/19 00:46:20;;;;;;;;;1.00;1.00;;;;;12.94;67.63;97756.25;5076806;28;8834;-58
2023/10/19 00:48:54;;;;;;;;;6.00;6.00;;;;;12.97;68.55;97751.41;5094723;28;8906;-57
2023/10/19 00:51:30;;;;;;;;;4.00;4.00;;;;;13.02;68.24;97764.19;5094901;28;9511;-57
2023/10/19 00:53:58;;;;;;;;;3.00;1.00;;;;;13.07;68.25;97761.78;5094473;28;8849;-58
2023/10/19 00:56:31;;;;;;;;;3.00;3.00;;;;;13.10;68.56;97766.72;5094136;28;8834;-58
2023/10/19 00:59:06;;;;;;;;;1.00;1.00;;;;;13.08;68.71;97760.75;5094839;28;8826;-57
2023/10/19 01:01:40;;;;;;;;;1.00;1.00;;;;;13.02;69.51;97756.19;5094467;28;8845;-57
2023/10/19 01:04:08;;;;;;;;;1.00;1.00;;;;;12.98;69.24;97755.72;5094167;28;9500;-59
2023/10/19 01:06:36;;;;;;;;;3.00;3.00;;;;;12.94;69.85;97761.59;5094132;28;8838;-58
2023/10/19 01:09:05;;;;;;;;;1.50;1.50;;;;;12.94;69.58;97750.94;5093998;28;8841;-59
2023/10/19 01:11:34;;;;;;;;;2.00;1.00;;;;;12.93;70.16;97749.28;5094372;28;8850;-57
2023/10/19 01:14:03;;;;;;;;;3.00;1.00;;;;;12.94;70.80;97758.94;5094418;28;8826;-58
2023/10/19 01:16:32;;;;;;;;;1.00;1.00;;;;;12.94;70.13;97745.59;5094195;28;8830;-59
2023/10/19 01:18:59;;;;;;;;;2.50;2.00;;;;;12.95;70.20;97744.59;5096515;28;8845;-58
2023/10/19 01:21:37;;;;;;;;;1.00;1.00;;;;;12.97;70.93;97748.72;5097819;28;8822;-56
2023/10/19 01:24:05;;;;;;;;;2.50;2.50;;;;;13.00;71.18;97740.31;5097539;28;8841;-56
2023/10/19 01:26:37;;;;;;;;;1.00;1.00;;;;;13.04;71.33;97730.09;5097582;28;9521;-57
2023/10/19 01:29:13;;;;;;;;;5.00;3.00;;;;;13.07;71.27;97741.22;5098155;28;8822;-56
2023/10/19 01:31:51;;;;;;;;;2.50;2.50;;;;;13.11;71.53;97737.16;5097762;28;8806;-58
2023/10/19 01:34:20;;;;;;;;;3.00;2.50;;;;;13.14;71.93;97741.28;5097705;28;8841;-58
2023/10/19 01:36:50;;;;;;;;;4.50;4.00;;;;;13.17;72.12;97730.22;5097445;28;8838;-57
2023/10/19 01:39:18;;;;;;;;;3.25;3.00;;;;;13.20;72.37;97733.31;5097726;28;8821;-59
2023/10/19 01:41:45;;;;;;;;;3.50;3.50;;;;;13.25;72.13;97724.72;5097290;28;8842;-59
2023/10/19 01:44:15;;;;;;;;;2.00;2.00;;;;;13.30;72.28;97724.97;5097800;28;8834;-58
2023/10/19 01:46:43;;;;;;;;;3.25;3.25;;;;;13.37;72.18;97733.88;5097091;28;8838;-58
2023/10/19 01:49:11;;;;;;;;;6.50;6.00;;;;;13.45;72.31;97721.19;5097366;28;8877;-57
2023/10/19 01:51:38;;;;;;;;;6.25;4.00;;;;;13.53;71.79;97720.22;5097438;28;8834;-59
2023/10/19 01:54:07;;;;;;;;;3.75;3.50;;;;;13.60;71.70;97721.09;5101721;28;9485;-59
2023/10/19 01:56:35;;;;;;;;;5.75;4.50;;;;;13.65;71.40;97714.13;5106363;28;8834;-57
2023/10/19 01:59:04;;;;;;;;;6.00;5.00;;;;;13.72;72.07;97722.19;5117434;28;8828;-57
2023/10/19 02:01:31;;;;;;;;;3.00;3.00;;;;;13.76;71.80;97720.78;5100239;28;8836;-59
2023/10/19 02:03:59;;;;;;;;;5.00;4.00;;;;;13.81;71.89;97724.53;5097041;28;8841;-59
2023/10/19 02:06:27;;;;;;;;;5.50;5.50;;;;;13.84;72.12;97718.81;5097061;28;8818;-58
2023/10/19 02:08:56;;;;;;;;;4.50;3.25;;;;;13.88;72.49;97713.88;5096771;28;8826;-58
2023/10/19 02:11:22;;;;;;;;;4.75;3.25;;;;;13.89;72.57;97716.34;5096633;28;8879;-56
2023/10/19 02:13:50;;;;;;;;;4.00;4.00;;;;;13.90;73.30;97709.16;5114771;28;8914;-59
2023/10/19 02:16:20;;;;;;;;;4.50;4.00;;;;;13.90;73.12;97711.84;5117458;28;8855;-58
2023/10/19 02:18:48;;;;;;;;;4.00;3.50;;;;;13.88;73.26;97713.88;5117346;28;8816;-59
2023/10/19 02:21:14;;;;;;;;;4.00;4.00;;;;;13.87;73.10;97696.16;5117091;28;8836;-59
2023/10/19 02:23:42;;;;;;;;;3.75;3.00;;;;;13.89;73.42;97705.63;5117285;28;8820;-56
2023/10/19 02:26:09;;;;;;;;;4.00;3.75;;;;;13.94;73.09;97697.00;5117389;28;9560;-59
2023/10/19 02:28:38;;;;;;;;;4.00;3.75;;;;;14.00;73.49;97701.59;5117006;28;8834;-58
2023/10/19 02:31:14;;;;;;;;;3.00;3.00;;;;;14.03;72.83;97698.53;5117160;28;8828;-58
2023/10/19 02:33:45;;;;;;;;;5.50;4.00;;;;;14.07;73.30;97697.09;5117077;28;8820;-57
2023/10/19 02:36:13;;;;;;;;;3.25;3.25;;;;;14.11;72.87;97691.13;5116922;28;9607;-56
2023/10/19 02:38:43;;;;;;;;;2.75;2.50;;;;;14.15;72.79;97699.59;5116787;28;8820;-57
2023/10/19 02:41:10;;;;;;;;;4.50;4.50;;;;;14.18;72.74;97696.56;5116836;28;8912;-59
2023/10/19 02:43:37;;;;;;;;;4.00;4.00;;;;;14.22;73.07;97698.66;5117142;28;8863;-57
2023/10/19 02:46:04;;;;;;;;;4.00;4.00;;;;;14.24;72.63;97701.09;5116834;28;9577;-58
2023/10/19 02:48:32;;;;;;;;;4.00;3.00;;;;;14.27;72.95;97700.72;5113522;28;8916;-57
2023/10/19 02:51:05;;;;;;;;;3.50;3.25;;;;;14.31;72.41;97686.72;5096470;28;8838;-59
2023/10/19 02:53:34;;;;;;;;;4.00;4.00;;;;;14.35;73.11;97695.19;5095799;28;8842;-59
2023/10/19 02:56:05;;;;;;;;;2.00;2.00;;;;;14.37;72.66;97695.81;5095796;28;8834;-57
2023/10/19 02:58:33;;;;;;;;;1.50;1.50;;;;;14.42;73.14;97698.72;5096230;28;8838;-59
2023/10/19 03:01:00;;;;;;;;;1.00;1.00;;;;;14.47;72.59;97691.72;5095841;28;8842;-60
2023/10/19 03:03:30;;;;;;;;;4.00;4.00;;;;;14.52;72.54;97693.78;5095791;28;8860;-59
2023/10/19 03:05:59;;;;;;;;;3.00;3.00;;;;;14.53;72.90;97692.75;5095636;28;8826;-57
2023/10/19 03:08:27;;;;;;;;;1.00;1.00;;;;;14.54;73.16;97697.09;5095979;28;8814;-57
2023/10/19 03:11:03;;;;;;;;;4.00;3.25;;;;;14.56;73.10;97687.84;5095618;28;8916;-57
2023/10/19 03:13:32;;;;;;;;;3.00;3.00;;;;;14.59;72.77;97691.97;5095650;28;8826;-59
2023/10/19 03:16:00;;;;;;;;;3.00;3.00;;;;;14.61;73.25;97690.75;5095829;28;8830;-57
2023/10/19 03:18:28;;;;;;;;;3.00;3.00;;;;;14.64;73.29;97689.50;5095596;28;8864;-59
2023/10/19 03:20:55;;;;;;;;;5.50;5.50;;;;;14.67;72.88;97681.06;5095514;28;9500;-57
2023/10/19 03:23:23;;;;;;;;;1.50;1.50;;;;;14.69;73.27;97676.31;5095921;28;8818;-57
2023/10/19 03:26:22;;;;;;;;;3.50;3.00;;;;;14.72;72.95;97679.41;5095284;28;8821;-57
2023/10/19 03:28:44;;;;;;;;;3.50;3.00;;;;;14.71;73.29;97674.28;5095119;28;8818;-59
2023/10/19 03:31:17;;;;;;;;;3.25;3.25;;;;;14.69;73.41;97669.13;5095105;28;8918;-58
2023/10/19 03:33:47;;;;;;;;;3.50;3.00;;;;;14.69;73.06;97679.00;5095471;28;8952;-59
2023/10/19 03:36:16;;;;;;;;;1.00;1.00;;;;;14.68;73.26;97680.03;5095144;28;8833;-58
2023/10/19 03:38:45;;;;;;;;;2.50;1.00;;;;;14.68;73.49;97683.53;5095318;28;8826;-57
2023/10/19 03:41:13;;;;;;;;;4.00;3.25;;;;;14.68;73.05;97680.03;5095203;28;8823;-58
2023/10/19 03:43:42;;;;;;;;;3.75;3.75;;;;;14.69;73.06;97670.97;5095019;28;8834;-59
2023/10/19 03:46:22;;;;;;;;;3.00;3.00;;;;;14.68;73.09;97669.31;5094602;28;8825;-59
2023/10/19 03:48:50;;;;;;;;;2.00;2.00;;;;;14.67;73.24;97665.00;5099961;28;8828;-57
2023/10/19 03:51:18;;;;;;;;;3.00;3.00;;;;;14.67;73.10;97675.69;5115277;28;8816;-59
2023/10/19 03:53:53;;;;;;;;;3.25;3.00;;;;;14.66;73.02;97671.38;5114820;28;8838;-60
2023/10/19 03:56:21;;;;;;;;;1.00;1.00;;;;;14.68;73.64;97666.63;5114700;28;8835;-59
2023/10/19 03:58:50;;;;;;;;;1.40;1.40;;;;;14.68;73.27;97664.78;5114237;28;8896;-56
2023/10/19 04:01:19;;;;;;;;;3.00;3.00;;;;;14.70;74.04;97665.41;5114789;28;8938;-58
2023/10/19 04:03:47;;;;;;;;;1.80;1.80;;;;;14.76;73.51;97669.13;5114745;28;8839;-57
2023/10/19 04:06:15;;;;;;;;;1.40;1.00;;;;;14.78;73.57;97661.69;5115155;28;8824;-59
2023/10/19 04:08:45;;;;;;;;;3.20;3.00;;;;;14.78;72.91;97659.00;5115459;28;8820;-58
2023/10/19 04:11:21;;;;;;;;;3.00;3.00;;;;;14.78;73.51;97657.16;5115139;28;9573;-59
2023/10/19 04:13:52;;;;;;;;;1.00;1.00;;;;;14.74;73.66;97647.91;5115251;28;8820;-58
2023/10/19 04:16:20;;;;;;;;;1.00;1.00;;;;;14.73;73.20;97654.28;5097691;28;8849;-58
2023/10/19 04:18:49;;;;;;;;;1.00;1.00;;;;;14.72;73.67;97644.59;5112409;28;9552;-59
2023/10/19 04:21:16;;;;;;;;;1.00;1.00;;;;;14.73;73.24;97656.94;5104850;28;8804;-58
2023/10/19 04:23:46;;;;;;;;;2.60;2.60;;;;;14.73;73.67;97650.78;5115309;28;8835;-58
2023/10/19 04:26:18;;;;;;;;;2.00;1.00;;;;;14.73;73.52;97648.91;5097278;28;8798;-58
2023/10/19 04:28:49;;;;;;;;;2.00;2.00;;;;;14.72;73.03;97655.31;5095277;28;9545;-59
2023/10/19 04:31:18;;;;;;;;;3.00;3.00;;;;;14.71;73.70;97647.50;5094221;28;9495;-57
2023/10/19 04:33:50;;;;;;;;;2.00;1.00;;;;;14.70;73.21;97643.13;5094543;28;8972;-60
2023/10/19 04:36:21;;;;;;;;;1.50;1.00;;;;;14.70;73.24;97648.50;5094365;28;8959;-59
2023/10/19 04:38:48;;;;;;;;;3.00;3.00;;;;;14.69;73.61;97641.50;5094192;28;8902;-57
2023/10/19 04:41:16;;;;;;;;;2.50;2.50;;;;;14.68;73.54;97643.38;5094612;28;8818;-56
2023/10/19 04:43:49;;;;;;;;;1.40;1.40;;;;;14.70;73.14;97643.13;5094345;28;8822;-59
2023/10/19 04:46:18;;;;;;;;;1.80;1.80;;;;;14.71;73.61;97639.44;5094272;28;8849;-59
2023/10/19 04:48:46;;;;;;;;;1.40;1.40;;;;;14.71;73.28;97637.59;5093925;28;8806;-60
2023/10/19 04:51:14;;;;;;;;;3.00;3.00;;;;;14.72;73.52;97628.50;5093843;28;9567;-57
2023/10/19 04:53:42;;;;;;;;;2.80;2.80;;;;;14.70;73.54;97622.53;5096572;28;8814;-57
2023/10/19 04:56:09;;;;;;;;;1.00;1.00;;;;;14.72;73.92;97619.66;5098144;28;8818;-57
2023/10/19 04:58:37;;;;;;;;;1.00;1.00;;;;;14.72;73.14;97631.19;5097872;28;8848;-57
2023/10/19 05:01:05;;;;;;;;;3.00;3.00;;;;;14.73;73.90;97632.03;5097807;28;8834;-56
2023/10/19 05:03:34;;;;;;;;;1.00;1.00;;;;;14.74;73.32;97636.34;5097744;28;8822;-58
2023/10/19 05:06:02;;;;;;;;;1.50;1.50;;;;;14.73;73.34;97634.72;5097860;28;8822;-57
2023/10/19 05:08:32;;;;;;;;;2.50;2.50;;;;;14.74;73.19;97631.84;5097677;28;8825;-60
2023/10/19 05:11:00;;;;;;;;;3.00;3.00;;;;;14.73;73.33;97627.47;5101492;28;8839;-59
2023/10/19 05:13:30;;;;;;;;;1.00;1.00;;;;;14.73;73.34;97632.03;5110289;28;8832;-59
2023/10/19 05:15:58;;;;;;;;;3.00;2.00;;;;;14.73;73.58;97629.34;5117847;28;8824;-58
2023/10/19 05:18:27;;;;;;;;;2.20;2.20;;;;;14.71;73.42;97631.41;5117534;28;8862;-57
2023/10/19 05:20:56;;;;;;;;;1.40;1.00;;;;;14.67;73.39;97635.53;5117198;28;8832;-58
2023/10/19 05:23:24;;;;;;;;;3.00;3.00;;;;;14.61;73.73;97631.81;5116621;28;8847;-58
2023/10/19 05:25:53;;;;;;;;;1.80;1.00;;;;;14.62;73.63;97640.66;5116606;28;8840;-59
2023/10/19 05:28:21;;;;;;;;;1.40;1.40;;;;;14.61;73.54;97634.50;5115622;28;8846;-58
2023/10/19 05:30:50;;;;;;;;;3.00;3.00;;;;;14.60;73.88;97638.19;5115328;28;8859;-57
2023/10/19 05:33:20;;;;;;;;;1.80;1.80;;;;;14.59;73.99;97633.03;5115188;28;8823;-58
2023/10/19 05:35:48;;;;;;;;;1.80;1.80;;;;;14.57;74.05;97635.91;5115494;28;8839;-58
2023/10/19 05:38:16;;;;;;;;;1.80;1.00;;;;;14.56;73.77;97647.66;5115583;28;8820;-58
2023/10/19 05:40:45;;;;;;;;;2.50;2.50;;;;;14.56;73.69;97646.84;5115814;28;8863;-57
2023/10/19 05:43:12;;;;;;;;;3.40;3.00;;;;;14.54;73.58;97641.69;5116485;28;8832;-56
2023/10/19 05:45:40;;;;;;;;;2.20;2.20;;;;;14.55;73.80;97646.00;5115849;28;8834;-56
2023/10/19 05:48:08;;;;;;;;;1.40;1.00;;;;;14.53;74.18;97645.41;5116266;28;8880;-57
2023/10/19 05:50:36;;;;;;;;;2.00;2.00;;;;;14.52;73.46;97653.63;5116834;28;8824;-57
2023/10/19 05:53:05;;;;;;;;;4.00;4.00;;;;;14.48;74.33;97650.53;5116407;28;8943;-58
2023/10/19 05:55:34;;;;;;;;;3.50;3.50;;;;;14.45;73.89;97647.41;5116393;28;8824;-56
2023/10/19 05:58:04;;;;;;;;;4.00;4.00;;;;;14.44;74.28;97643.94;5115931;28;8847;-57
2023/10/19 06:00:31;;;;;;;;;2.75;2.50;;;;;14.43;73.61;97644.13;5115677;28;8839;-58
2023/10/19 06:02:59;;;;;;;;;3.00;3.00;;;;;14.42;74.05;97642.47;5114855;28;8848;-57
2023/10/19 06:05:27;;;;;;;;;3.50;3.50;;;;;14.41;74.60;97643.50;5114456;28;8842;-57
2023/10/19 06:07:55;;;;;;;;;3.50;2.00;;;;;14.38;74.00;97638.53;5114828;28;9518;-57
2023/10/19 06:10:23;;;;;;;;;2.50;2.50;;;;;14.35;74.34;97652.34;5114364;28;9849;-57
2023/10/19 06:12:51;;;;;;;;;2.50;1.00;;;;;14.33;74.38;97649.06;5114274;28;8847;-57
2023/10/19 06:15:20;;;;;;;;;0.50;0.50;;;;;14.33;74.61;97649.06;5113687;28;8838;-57
2023/10/19 06:17:49;;;;;;;;;2.00;2.00;;;;;14.36;74.25;97654.00;5114193;28;8831;-57
2023/10/19 06:20:27;;;;;;;;;0.40;0.00;;;;;14.37;74.53;97648.44;5114468;28;8982;-57
2023/10/19 06:22:55;;;;;;;;;1.00;1.00;;;;;14.39;74.10;97654.41;5114019;28;8851;-57
2023/10/19 06:25:23;;;;;;;;;1.00;1.00;;;;;14.40;74.07;97663.25;5113906;28;8892;-57
2023/10/19 06:27:51;;;;;;;;;3.00;1.00;;;;;14.39;74.20;97670.47;5114349;28;8882;-58
2023/10/19 06:30:19;;;;;;;;;3.25;3.00;;;;;14.42;74.03;97670.06;5114548;28;8816;-58
2023/10/19 06:32:47;;;;;;;;;3.00;3.00;;;;;14.46;73.82;97671.34;5114805;28;8839;-57
2023/10/19 06:35:16;;;;;;;;;3.00;3.00;;;;;14.49;73.76;97670.91;5114041;28;8910;-57
2023/10/19 06:37:43;;;;;;;;;4.00;3.25;;;;;14.54;74.26;97668.47;5113893;28;8835;-58
2023/10/19 06:40:12;;;;;;;;;3.00;1.00;;;;;14.57;74.08;97667.25;5114661;28;8913;-57
2023/10/19 06:42:39;;;;;;;;;1.00;1.00;;;;;14.60;74.26;97666.81;5115039;28;8832;-57
2023/10/19 06:45:09;;;;;;;;;3.75;3.75;;;;;14.64;73.99;97668.09;5115024;28;8820;-57
2023/10/19 06:47:38;;;;;;;;;1.00;1.00;;;;;14.68;73.92;97672.00;5115524;28;8955;-59
2023/10/19 06:50:07;;;;;;;;;1.00;1.00;;;;;14.71;73.85;97682.31;5114525;28;8916;-57
2023/10/19 06:52:35;;;;;;;;;1.00;1.00;;;;;14.75;73.68;97676.34;5113857;28;8842;-59
2023/10/19 06:55:03;;;;;;;;;2.50;1.50;;;;;14.79;73.15;97676.78;5113083;28;8907;-58
2023/10/19 06:57:32;;;;;;;;;3.00;1.00;;;;;14.80;73.42;97678.41;5112288;28;8920;-57
2023/10/19 07:00:10;;;;;;;;;3.75;3.00;;;;;14.82;73.61;97677.19;5112557;28;8852;-58
2023/10/19 07:02:40;;;;;;;;;1.00;1.00;;;;;14.85;73.27;97681.28;5113286;28;8824;-56
2023/10/19 07:05:10;;;;;;;;;1.00;1.00;;;;;14.89;74.00;97678.03;5113453;28;8847;-57
2023/10/19 07:07:39;;;;;;;;;3.00;3.00;;;;;14.95;73.40;97687.09;5114140;28;8824;-59
2023/10/19 07:10:08;;;;;;;;;3.75;3.00;;;;;14.99;73.63;97693.69;5114397;28;8986;-57
2023/10/19 07:12:36;;;;;;;;;3.80;3.80;;;;;15.03;73.25;97697.63;5114481;28;8843;-58
2023/10/19 07:15:07;;;;;;;;;1.40;1.40;;;;;15.06;73.14;97689.16;5114188;28;9597;-58
2023/10/19 07:17:35;;;;;;;;;3.40;3.40;;;;;15.08;73.76;97687.91;5114173;28;8820;-56
2023/10/19 07:20:05;;;;;;;;;3.00;3.00;;;;;15.08;73.36;97687.09;5114029;28;8824;-57
2023/10/19 07:22:33;;;;;;;;;3.00;3.00;;;;;15.09;73.07;97692.25;5114064;28;8850;-57
2023/10/19 07:25:05;;;;;;;;;3.00;3.00;;;;;15.11;73.13;97697.41;5114198;28;8913;-57
2023/10/19 07:27:33;;;;;;;;;3.20;2.20;;;;;15.12;73.61;97699.91;5113814;28;9788;-58
2023/10/19 07:30:09;;;;;;;;;1.40;1.40;;;;;15.15;73.37;97701.31;5114449;28;9505;-58
2023/10/19 07:32:38;;;;;;;;;3.00;3.00;;;;;15.19;73.29;97702.56;5114020;28;8835;-58
2023/10/19 07:35:06;;;;;;;;;4.00;3.40;;;;;15.24;73.14;97697.44;5114309;28;8836;-58
2023/10/19 07:37:34;;;;;;;;;1.40;1.40;;;;;15.27;72.67;97697.00;5114341;28;8912;-57
2023/10/19 07:40:05;;;;;;;;;1.40;1.40;;;;;15.28;72.89;97696.81;5113934;28;8952;-58
2023/10/19 07:42:35;;;;;;;;;4.60;3.80;;;;;15.28;73.05;97699.50;5114254;28;8836;-57
2023/10/19 07:45:04;;;;;;;;;4.00;3.00;;;;;15.29;73.04;97700.31;5114308;28;8859;-57
2023/10/19 07:47:32;;;;;;;;;3.75;3.25;;;;;15.28;73.02;97702.19;5114044;28;8839;-59
2023/10/19 07:50:02;;;;;;;;;4.00;4.00;;;;;15.26;72.93;97703.41;5114386;28;8840;-57
2023/10/19 07:52:31;;;;;;;;;4.40;4.00;;;;;15.25;73.30;97707.94;5113077;28;8985;-57
2023/10/19 07:54:58;;;;;;;;;3.20;3.00;;;;;15.23;73.36;97710.00;5113854;28;8954;-57
2023/10/19 07:57:27;;;;;;;;;2.60;2.60;;;;;15.23;72.80;97715.38;5113614;28;8832;-58
2023/10/19 07:59:56;;;;;;;;;4.40;3.60;;;;;15.24;73.41;97713.53;5113382;28;8955;-58
2023/10/19 08:02:24;;;;;;;;;3.00;3.00;;;;;15.24;73.20;97708.97;5112865;28;8831;-58
2023/10/19 08:04:52;;;;;;;;;3.75;3.75;;;;;15.27;73.06;97710.41;5112564;28;8840;-58
2023/10/19 08:07:20;;;;;;;;;3.00;3.00;;;;;15.29;72.96;97711.88;5112376;28;8831;-58
2023/10/19 08:09:48;;;;;;;;;5.20;3.60;;;;;15.32;73.12;97705.31;5112056;28;8846;-58
2023/10/19 08:12:16;;;;;;;;;3.40;3.40;;;;;15.33;73.02;97709.63;5112132;28;8842;-58
2023/10/19 08:14:46;;;;;;;;;3.00;3.00;;;;;15.36;73.11;97703.84;5113670;28;8812;-58
2023/10/19 08:17:14;;;;;;;;;4.00;4.00;;;;;15.41;73.04;97698.69;5113646;28;9477;-59
2023/10/19 08:19:42;;;;;;;;;3.00;3.00;;;;;15.48;73.41;97710.25;5114116;28;8946;-57
2023/10/19 08:22:10;;;;;;;;;3.00;3.00;;;;;15.55;72.34;97714.56;5113121;28;8835;-57
2023/10/19 08:24:38;;;;;;;;;3.80;3.00;;;;;15.64;72.75;97710.63;5113432;28;8966;-59
2023/10/19 08:27:06;;;;;;;;;1.80;1.80;;;;;15.73;72.02;97703.19;5113837;28;8838;-58
2023/10/19 08:29:35;;;;;;;;;9.00;8.60;;;;;15.82;71.74;97704.63;5117944;28;8836;-58
2023/10/19 08:32:03;;;;;;;;;3.80;3.00;;;;;15.92;71.80;97713.06;5117095;28;8835;-60
2023/10/19 08:34:31;;;;;;;;;3.00;3.00;;;;;16.02;71.36;97713.47;5117800;28;8974;-58
2023/10/19 08:36:59;;;;;;;;;3.00;3.00;;;;;16.08;71.14;97702.69;5117674;28;8862;-57
2023/10/19 08:39:27;;;;;;;;;1.00;1.00;;;;;16.17;71.27;97705.97;5117601;28;8900;-58
2023/10/19 08:41:55;;;;;;;;;1.80;1.80;;;;;16.25;71.65;97696.63;5117697;28;8862;-59
2023/10/19 08:44:23;;;;;;;;;3.80;3.80;;;;;16.34;71.07;97698.03;5117919;28;8898;-58
2023/10/19 08:46:51;;;;;;;;;1.00;1.00;;;;;16.42;71.37;97703.22;5117886;28;8852;-59
2023/10/19 08:49:19;;;;;;;;;1.60;1.00;;;;;16.51;70.87;97693.88;5117327;28;8820;-57
2023/10/19 08:51:50;;;;;;;;;0.40;0.00;;;;;16.60;71.18;97691.75;5118069;28;9505;-58
2023/10/19 08:54:17;;;;;;;;;1.00;1.00;;;;;16.69;71.09;97685.91;5117373;28;8912;-57
2023/10/19 08:56:47;;;;;;;;;3.00;3.00;;;;;16.81;70.91;97676.16;5117753;28;8879;-57
2023/10/19 08:59:16;;;;;;;;;1.80;1.00;;;;;16.92;70.29;97682.66;5117684;28;9577;-58
2023/10/19 09:01:44;;;;;;;;;1.40;1.00;;;;;16.98;70.16;97679.94;5116763;28;8914;-58
2023/10/19 09:04:13;;;;;;;;;3.00;1.80;;;;;17.02;70.24;97675.78;5117439;28;8851;-58
2023/10/19 09:06:42;;;;;;;;;2.20;1.00;;;;;17.07;70.33;97670.56;5117525;28;8845;-59
2023/10/19 09:09:16;;;;;;;;;3.00;3.00;;;;;17.13;69.94;97667.00;5117398;28;8835;-58
2023/10/19 09:11:44;;;;;;;;;1.00;1.00;;;;;17.20;70.07;97673.16;5116966;28;8860;-59
2023/10/19 09:14:13;;;;;;;;;1.80;1.80;;;;;17.29;70.23;97661.09;5116760;28;8831;-58
2023/10/19 09:16:40;;;;;;;;;1.00;1.00;;;;;17.39;70.28;97677.56;5116700;28;9489;-58
2023/10/19 09:19:08;;;;;;;;;1.00;1.00;;;;;17.49;69.74;97671.72;5116138;28;8908;-58
2023/10/19 09:21:36;;;;;;;;;1.00;0.40;;;;;17.60;69.79;97673.69;5115860;28;8871;-58
2023/10/19 09:24:04;;;;;;;;;1.00;1.00;;;;;17.73;69.44;97668.16;5116038;28;8839;-58
2023/10/19 09:26:32;;;;;;;;;3.00;3.00;;;;;17.80;69.21;97656.28;5116279;28;8828;-60
2023/10/19 09:29:01;;;;;;;;;2.20;2.20;;;;;17.81;69.07;97666.00;5116657;28;8849;-58
2023/10/19 09:31:30;;;;;;;;;1.00;1.00;;;;;17.78;69.41;97676.41;5116248;28;8828;-58
2023/10/19 09:33:59;;;;;;;;;1.00;1.00;;;;;17.73;69.75;97681.63;5116832;28;8935;-58
2023/10/19 09:36:29;;;;;;;;;1.00;1.00;;;;;17.74;69.76;97677.88;5116966;28;8824;-58
2023/10/19 09:38:58;;;;;;;;;1.00;1.00;;;;;17.80;69.38;97671.59;5115734;28;8835;-58
2023/10/19 09:41:28;;;;;;;;;1.00;1.00;;;;;17.86;69.33;97668.88;5116592;28;8859;-57
2023/10/19 09:43:58;;;;;;;;;1.00;1.00;;;;;17.90;69.04;97670.03;5116908;28;8839;-58
2023/10/19 09:46:26;;;;;;;;;2.20;1.80;;;;;17.88;69.52;97672.16;5116394;28;8831;-58
2023/10/19 09:48:55;;;;;;;;;1.40;1.40;;;;;17.85;70.16;97667.19;5116472;28;8847;-58
2023/10/19 09:51:23;;;;;;;;;1.00;1.00;;;;;17.88;69.90;97674.00;5116539;28;8820;-59
2023/10/19 09:53:51;;;;;;;;;1.00;1.00;;;;;17.85;69.76;97671.78;5116159;28;8837;-58
2023/10/19 09:56:19;;;;;;;;;1.00;1.00;;;;;17.83;70.12;97669.28;5116667;28;8815;-58
2023/10/19 09:58:46;;;;;;;;;2.20;1.80;;;;;17.85;70.03;97669.88;5116075;28;8823;-58
2023/10/19 10:01:14;;;;;;;;;1.80;1.80;;;;;17.89;70.26;97662.19;5116032;28;8866;-59
2023/10/19 10:03:42;;;;;;;;;1.00;1.00;;;;;17.97;69.44;97662.72;5115913;28;8820;-58
2023/10/19 10:06:11;;;;;;;;;1.00;1.00;;;;;18.11;69.59;97658.84;5115805;28;8958;-58
2023/10/19 10:08:39;;;;;;;;;1.40;1.40;;;;;18.19;69.57;97650.44;5115826;28;8831;-58
2023/10/19 10:11:07;;;;;;;;;1.00;1.00;;;;;18.26;69.35;97645.81;5115615;28;8840;-58
2023/10/19 10:13:35;;;;;;;;;3.00;3.00;;;;;18.40;69.30;97638.38;5115512;28;8913;-58
2023/10/19 10:16:03;;;;;;;;;1.00;1.00;;;;;18.50;69.15;97628.72;5114587;28;8816;-59
2023/10/19 10:18:31;;;;;;;;;3.00;2.20;;;;;18.51;69.04;97640.34;5115097;28;8820;-57
2023/10/19 10:21:00;;;;;;;;;1.00;1.00;;;;;18.40;69.10;97641.91;5114860;28;8844;-58
2023/10/19 10:23:32;;;;;;;;;2.60;2.60;;;;;18.27;69.88;97642.06;5115523;28;8820;-58
2023/10/19 10:26:00;;;;;;;;;3.60;3.60;;;;;18.18;70.08;97640.72;5115190;28;8884;-58
2023/10/19 10:28:28;;;;;;;;;1.00;1.00;;;;;18.18;70.13;97634.50;5114904;28;8908;-58
2023/10/19 10:30:57;;;;;;;;;2.20;1.00;;;;;18.37;69.35;97645.06;5115318;28;8839;-58
2023/10/19 10:33:28;;;;;;;;;1.00;1.00;;;;;18.61;69.31;97641.41;5115691;28;8835;-59
2023/10/19 10:35:56;;;;;;;;;3.00;3.00;;;;;18.80;69.00;97634.09;5115640;28;8824;-58
2023/10/19 10:38:24;;;;;;;;;1.40;1.40;;;;;18.93;68.38;97637.41;5115280;28;8897;-58
2023/10/19 10:40:52;;;;;;;;;1.00;1.00;;;;;19.05;68.10;97635.56;5115329;28;8859;-60
2023/10/19 10:43:21;;;;;;;;;0.00;0.00;;;;;19.11;68.10;97644.63;5115371;28;8839;-58
2023/10/19 10:45:49;;;;;;;;;1.00;1.00;;;;;19.15;68.22;97637.69;5115156;28;8823;-58
2023/10/19 10:48:17;;;;;;;;;2.60;2.60;;;;;19.18;68.05;97638.06;5115037;28;8847;-60
2023/10/19 10:50:46;;;;;;;;;1.80;1.80;;;;;19.30;67.57;97640.78;5113826;28;8908;-58
2023/10/19 10:53:15;;;;;;;;;3.00;2.60;;;;;19.49;67.41;97634.25;5114751;28;8839;-59
2023/10/19 10:55:43;;;;;;;;;1.00;1.00;;;;;19.70;66.73;97637.16;5114406;28;8847;-58
2023/10/19 10:58:11;;;;;;;;;1.00;1.00;;;;;20.01;66.44;97628.69;5113535;28;8854;-58
2023/10/19 11:00:39;;;;;;;;;3.00;2.80;;;;;20.29;65.34;97626.06;5112727;28;8861;-57
2023/10/19 11:03:09;;;;;;;;;1.80;1.00;;;;;20.61;64.79;97618.28;5112979;28;9815;-58
2023/10/19 11:05:37;;;;;;;;;1.60;1.60;;;;;20.87;64.51;97618.56;5112205;28;8844;-58
2023/10/19 11:08:06;;;;;;;;;0.00;0.00;;;;;21.20;63.33;97615.88;5113261;28;8839;-59
2023/10/19 11:10:36;;;;;;;;;1.00;1.00;;;;;21.41;62.72;97621.34;5113222;28;8872;-58
2023/10/19 11:13:04;;;;;;;;;1.00;1.00;;;;;21.61;62.88;97618.13;5114353;28;8847;-58
2023/10/19 11:15:32;;;;;;;;;2.80;2.00;;;;;21.79;62.22;97623.31;5114010;28;8815;-58
2023/10/19 11:18:01;;;;;;;;;1.00;1.00;;;;;21.93;62.10;97617.28;5114549;28;8851;-59
2023/10/19 11:20:29;;;;;;;;;1.80;1.60;;;;;22.30;61.61;97618.31;5113922;28;8842;-59
2023/10/19 11:22:57;;;;;;;;;1.00;1.00;;;;;22.73;60.30;97614.75;5113408;28;8831;-59
2023/10/19 11:25:27;;;;;;;;;2.00;1.00;;;;;23.13;59.39;97607.03;5113825;28;8840;-59
2023/10/19 11:27:55;;;;;;;;;4.40;2.40;;;;;23.32;59.73;97609.13;5113724;28;8839;-58
2023/10/19 11:30:23;;;;;;;;;2.00;2.00;;;;;23.10;60.02;97610.25;5113892;28;9546;-59
2023/10/19 11:32:52;;;;;;;;;1.00;1.00;;;;;22.68;61.29;97606.59;5112750;28;8946;-59
2023/10/19 11:35:20;;;;;;;;;0.60;0.60;;;;;22.35;62.49;97604.00;5113045;28;8974;-59
2023/10/19 11:37:49;;;;;;;;;5.40;5.00;;;;;22.11;62.33;97600.72;5113460;28;8832;-60
2023/10/19 11:40:16;;;;;;;;;4.00;4.00;;;;;22.09;62.84;97599.34;5113469;28;8874;-60
2023/10/19 11:42:44;;;;;;;;;2.40;1.60;;;;;22.36;62.52;97597.50;5113817;28;8926;-59
2023/10/19 11:45:12;;;;;;;;;3.00;1.60;;;;;22.73;62.08;97595.75;5111998;28;8828;-58
2023/10/19 11:47:41;;;;;;;;;4.00;4.00;;;;;22.94;60.75;97586.75;5113355;28;8832;-58
2023/10/19 11:50:12;;;;;;;;;2.00;2.00;;;;;22.88;61.14;97585.03;5111864;28;8904;-59